EDDH/HAM METAR and TAF weather

Enter ICAO airport designator
Station Type Date Time Source
EDDH METAR 2019/02/20 07:50 UTC NOAA

EDDH 200750Z 24007KT 7000 FEW012 06/04 Q1018 NOSIG


Station Type Date Time Source
EDDH Decoded METAR 2019/02/20 07:50 UTC NOAA

Hamburg-Fuhlsbuettel, Germany (EDDH) 53-38N 010-00E 15M
Feb 20, 2019 - 02:50 AM EST / 2019.02.20 0750 UTC
Wind: from the WSW (240 degrees) at 8 MPH (7 KT):0
Visibility: 4 mile(s):0
Sky conditions: mostly clear
Temperature: 42 F (6 C)
Dew Point: 39 F (4 C)
Relative Humidity: 86%
Pressure (altimeter): 30.06 in. Hg (1018 hPa)
ob: EDDH 200750Z 24007KT 7000 FEW012 06/04 Q1018 NOSIG
cycle: 8

Station Type Date Time Source
EDDH TAF 2019/02/20 06:28 UTC NOAA

TAF EDDH 200500Z 2006/2112 25010KT 9999 BKN035
TEMPO 2018/2024 BKN012
TEMPO 2100/2109 4000 -RA BKN008


Example: see airport list